createdAt,value
2022-09-03T00:00:35.183Z,98884.80
2022-09-03T00:03:33.023Z,98887.80
2022-09-03T00:06:30.508Z,98888.60
2022-09-03T00:09:28.020Z,98887.60
2022-09-03T00:12:26.870Z,98883.40
2022-09-03T00:15:24.350Z,98884.80
2022-09-03T00:18:21.897Z,98882.20
2022-09-03T00:21:19.397Z,98882.00
2022-09-03T00:24:16.864Z,98883.60
2022-09-03T00:27:14.376Z,98881.60
2022-09-03T00:30:14.654Z,98882.00
2022-09-03T00:33:14.930Z,98878.80
2022-09-03T00:36:12.690Z,98883.20
2022-09-03T00:39:10.174Z,98886.80
2022-09-03T00:42:08.276Z,98884.40
2022-09-03T00:45:06.571Z,98891.20
2022-09-03T00:48:04.049Z,98883.40
2022-09-03T00:51:02.207Z,98890.40
2022-09-03T00:53:59.676Z,98889.00
2022-09-03T00:56:57.151Z,98885.20
2022-09-03T00:59:57.134Z,98885.40
2022-09-03T01:02:54.685Z,98885.60
2022-09-03T01:05:52.434Z,98887.20
2022-09-03T01:08:51.139Z,98890.60
2022-09-03T01:11:50.151Z,98892.20
2022-09-03T01:14:47.620Z,98896.80
2022-09-03T01:17:45.080Z,98896.60
2022-09-03T01:20:42.545Z,98901.00
2022-09-03T01:23:40.019Z,98902.20
2022-09-03T01:26:37.530Z,98909.60
2022-09-03T01:29:35.720Z,98909.80
2022-09-03T01:32:37.351Z,98902.40
2022-09-03T01:35:35.155Z,98902.60
2022-09-03T01:38:32.631Z,98891.80
2022-09-03T01:41:47.970Z,98887.00
2022-09-03T01:44:45.455Z,98885.80
2022-09-03T01:47:48.120Z,98880.80
2022-09-03T01:50:45.607Z,98885.20
2022-09-03T01:53:43.105Z,98883.40
2022-09-03T01:56:40.577Z,98880.20
2022-09-03T01:59:38.076Z,98880.60
2022-09-03T02:02:36.150Z,98881.40
2022-09-03T02:05:35.863Z,98879.60
2022-09-03T02:08:33.318Z,98879.80
2022-09-03T02:11:30.785Z,98883.40
2022-09-03T02:14:28.260Z,98883.80
2022-09-03T02:17:25.764Z,98882.40
2022-09-03T02:20:23.252Z,98885.80
2022-09-03T02:23:24.743Z,98880.20
2022-09-03T02:26:25.829Z,98875.40
2022-09-03T02:29:23.304Z,98880.80
2022-09-03T02:32:20.781Z,98879.80
2022-09-03T02:35:18.256Z,98877.60
2022-09-03T02:38:17.308Z,98881.20
2022-09-03T02:41:15.590Z,98882.60
2022-09-03T02:44:13.049Z,98879.20
2022-09-03T02:47:10.561Z,98876.40
2022-09-03T02:50:08.023Z,98875.80
2022-09-03T02:53:05.671Z,98881.40
2022-09-03T02:56:03.311Z,98881.80
2022-09-03T02:59:01.405Z,98873.60
2022-09-03T03:02:01.286Z,98872.80
2022-09-03T03:04:58.901Z,98869.20
2022-09-03T03:07:56.836Z,98864.40
2022-09-03T03:10:57.142Z,98874.00
2022-09-03T03:13:54.633Z,98871.80
2022-09-03T03:16:52.183Z,98869.20
2022-09-03T03:19:50.292Z,98874.60
2022-09-03T03:22:47.800Z,98870.20
2022-09-03T03:25:45.277Z,98867.80
2022-09-03T03:28:42.795Z,98875.00
2022-09-03T03:31:40.269Z,98870.40
2022-09-03T03:34:38.667Z,98864.20
2022-09-03T03:37:36.887Z,98859.40
2022-09-03T03:40:35.028Z,98857.80
2022-09-03T03:43:32.516Z,98865.40
2022-09-03T03:46:29.996Z,98861.80
2022-09-03T03:49:27.512Z,98869.80
2022-09-03T03:52:25.055Z,98868.80
2022-09-03T03:55:23.028Z,98869.80
2022-09-03T03:58:25.211Z,98873.60
2022-09-03T04:01:22.942Z,98873.60
2022-09-03T04:04:20.475Z,98879.00
2022-09-03T04:07:17.941Z,98879.60
2022-09-03T04:10:15.658Z,98877.60
2022-09-03T04:13:13.139Z,98879.00
2022-09-03T04:16:11.182Z,98885.80
2022-09-03T04:19:08.684Z,98884.40
2022-09-03T04:22:06.172Z,98881.80
2022-09-03T04:25:03.656Z,98885.20
2022-09-03T04:28:03.985Z,98886.20
2022-09-03T04:31:01.583Z,98890.00
2022-09-03T04:33:59.168Z,98890.80
2022-09-03T04:36:57.633Z,98892.80
2022-09-03T04:39:55.300Z,98883.40
2022-09-03T04:42:52.948Z,98882.00
2022-09-03T04:45:50.495Z,98880.80
2022-09-03T04:48:47.988Z,98883.20
2022-09-03T04:51:45.450Z,98881.60
2022-09-03T04:54:43.003Z,98891.40
2022-09-03T04:57:43.176Z,98901.80
2022-09-03T05:00:40.717Z,98897.60
2022-09-03T05:03:38.632Z,98895.20
2022-09-03T05:06:36.159Z,98886.80
2022-09-03T05:09:33.653Z,98891.80
2022-09-03T05:12:31.914Z,98897.00
2022-09-03T05:15:29.395Z,98897.00
2022-09-03T05:18:26.860Z,98900.60
2022-09-03T05:21:24.716Z,98893.80
2022-09-03T05:24:22.200Z,98897.60
2022-09-03T05:27:19.690Z,98896.00
2022-09-03T05:30:17.239Z,98893.20
2022-09-03T05:33:15.537Z,98893.40
2022-09-03T05:36:13.028Z,98888.60
2022-09-03T05:39:10.522Z,98889.80
2022-09-03T05:42:08.023Z,98893.20
2022-09-03T05:45:05.610Z,98895.40
2022-09-03T05:48:03.097Z,98886.80
2022-09-03T05:51:01.097Z,98885.20
2022-09-03T05:53:58.569Z,98887.00
2022-09-03T05:56:56.162Z,98892.00
2022-09-03T05:59:53.647Z,98895.00
2022-09-03T06:02:51.166Z,98893.40
2022-09-03T06:05:49.003Z,98885.20
2022-09-03T06:08:46.472Z,98883.00
2022-09-03T06:11:43.956Z,98878.80
2022-09-03T06:14:43.753Z,98885.20
2022-09-03T06:17:41.238Z,98887.80
2022-09-03T06:20:40.254Z,98882.60
2022-09-03T06:23:37.712Z,98880.20
2022-09-03T06:26:38.838Z,98886.80
2022-09-03T06:29:37.109Z,98887.00
2022-09-03T06:32:34.590Z,98892.00
2022-09-03T06:35:32.164Z,98893.20
2022-09-03T06:38:40.581Z,98889.20
2022-09-03T06:41:38.620Z,98888.40
2022-09-03T06:44:36.101Z,98894.60
2022-09-03T06:47:34.055Z,98897.60
2022-09-03T06:50:34.617Z,98889.20
2022-09-03T06:53:32.401Z,98883.60
2022-09-03T06:56:29.894Z,98879.00
2022-09-03T06:59:27.362Z,98878.60
2022-09-03T07:02:24.888Z,98883.00
2022-09-03T07:05:25.663Z,98894.40
2022-09-03T07:08:23.160Z,98893.60
2022-09-03T07:11:22.521Z,98898.40
2022-09-03T07:14:20.057Z,98893.80
2022-09-03T07:17:17.608Z,98890.20
2022-09-03T07:20:15.091Z,98890.40
2022-09-03T07:23:13.187Z,98893.40
2022-09-03T07:26:10.719Z,98892.00
2022-09-03T07:29:08.788Z,98888.80
2022-09-03T07:32:06.346Z,98898.20
2022-09-03T07:35:03.829Z,98891.20
2022-09-03T07:38:01.338Z,98898.60
2022-09-03T07:40:59.275Z,98899.00
2022-09-03T07:43:57.293Z,98894.20
2022-09-03T07:46:55.845Z,98898.80
2022-09-03T07:49:53.365Z,98900.80
2022-09-03T07:52:50.856Z,98904.40
2022-09-03T07:55:49.520Z,98899.60
2022-09-03T07:58:47.809Z,98905.20
2022-09-03T08:01:45.270Z,98915.20
2022-09-03T08:04:43.660Z,98913.40
2022-09-03T08:07:41.188Z,98914.20
2022-09-03T08:10:40.193Z,98912.00
2022-09-03T08:13:37.678Z,98911.20
2022-09-03T08:16:35.225Z,98913.60
2022-09-03T08:19:32.858Z,98907.60
2022-09-03T08:22:30.347Z,98906.60
2022-09-03T08:25:27.863Z,98908.40
2022-09-03T08:28:25.423Z,98915.00
2022-09-03T08:31:23.052Z,98916.20
2022-09-03T08:34:20.597Z,98911.20
2022-09-03T08:37:18.074Z,98914.00
2022-09-03T08:40:15.555Z,98911.40
2022-09-03T08:43:13.390Z,98914.40
2022-09-03T08:46:10.909Z,98917.00
2022-09-03T08:49:08.431Z,98917.40
2022-09-03T08:52:05.904Z,98914.80
2022-09-03T08:55:03.438Z,98918.80
2022-09-03T08:58:00.901Z,98915.20
2022-09-03T09:01:01.694Z,98915.80
2022-09-03T09:03:59.397Z,98912.00
2022-09-03T09:06:57.266Z,98911.40
2022-09-03T09:09:54.758Z,98912.60
2022-09-03T09:12:52.235Z,98916.40
2022-09-03T09:15:49.762Z,98920.40
2022-09-03T09:18:47.758Z,98913.80
2022-09-03T09:21:46.315Z,98914.80
2022-09-03T09:24:44.276Z,98917.60
2022-09-03T09:27:41.748Z,98912.20
2022-09-03T09:30:39.237Z,98910.20
2022-09-03T09:33:36.722Z,98906.40
2022-09-03T09:36:34.195Z,98902.40
2022-09-03T09:39:32.118Z,98906.60
2022-09-03T09:42:31.213Z,98905.20
2022-09-03T09:45:28.753Z,98909.20
2022-09-03T09:48:27.204Z,98913.40
2022-09-03T09:51:24.658Z,98907.00
2022-09-03T09:54:22.279Z,98897.60
2022-09-03T09:57:19.779Z,98900.40
2022-09-03T10:00:17.319Z,98900.40
2022-09-03T10:03:14.880Z,98899.00
2022-09-03T10:06:30.026Z,98906.00
2022-09-03T10:09:31.383Z,98906.60
2022-09-03T10:12:29.366Z,98906.20
2022-09-03T10:15:26.851Z,98912.60
2022-09-03T10:18:28.728Z,98911.80
2022-09-03T10:21:26.552Z,98905.20
2022-09-03T10:24:24.178Z,98911.60
2022-09-03T10:27:23.036Z,98905.80
2022-09-03T10:30:20.527Z,98902.60
2022-09-03T10:33:18.079Z,98905.20
2022-09-03T10:36:15.642Z,98896.20
2022-09-03T10:39:13.142Z,98896.00
2022-09-03T10:42:11.282Z,98895.60
2022-09-03T10:45:09.778Z,98892.60
2022-09-03T10:48:07.255Z,98890.00
2022-09-03T10:51:04.869Z,98896.60
2022-09-03T10:54:02.357Z,98886.20
2022-09-03T10:56:59.889Z,98887.00
2022-09-03T10:59:57.360Z,98891.20
2022-09-03T11:02:54.985Z,98889.60
2022-09-03T11:05:53.091Z,98876.60
2022-09-03T11:08:51.157Z,98879.40
2022-09-03T11:11:48.652Z,98887.40
2022-09-03T11:14:46.887Z,98884.40
2022-09-03T11:17:44.392Z,98876.80
2022-09-03T11:20:42.437Z,98877.80
2022-09-03T11:23:40.707Z,98872.80
2022-09-03T11:26:39.905Z,98866.60
2022-09-03T11:29:38.299Z,98868.20
2022-09-03T11:32:35.802Z,98873.20
2022-09-03T11:35:33.725Z,98868.80
2022-09-03T11:38:32.222Z,98867.60
2022-09-03T11:41:29.698Z,98872.40
2022-09-03T11:44:27.765Z,98863.80
2022-09-03T11:47:25.248Z,98861.60
2022-09-03T11:50:22.766Z,98868.40
2022-09-03T11:53:20.382Z,98868.40
2022-09-03T11:56:17.900Z,98863.40
2022-09-03T11:59:16.766Z,98862.60
2022-09-03T12:02:14.287Z,98866.20
2022-09-03T12:05:12.397Z,98864.60
2022-09-03T12:08:09.873Z,98864.20
2022-09-03T12:11:09.884Z,98868.80
2022-09-03T12:14:11.653Z,98870.20
2022-09-03T12:17:11.105Z,98873.40
2022-09-03T12:20:08.600Z,98867.80
2022-09-03T12:23:06.711Z,98876.40
2022-09-03T12:26:04.181Z,98876.60
2022-09-03T12:29:02.851Z,98865.80
2022-09-03T12:32:01.832Z,98865.60
2022-09-03T12:34:59.311Z,98865.60
2022-09-03T12:38:06.527Z,98865.40
2022-09-03T12:41:26.826Z,98861.20
2022-09-03T12:44:23.743Z,98851.60
2022-09-03T12:47:38.028Z,98858.00
2022-09-03T12:50:35.793Z,98860.60
2022-09-03T12:53:33.277Z,98855.20
2022-09-03T12:56:32.391Z,98856.60
2022-09-03T12:59:30.376Z,98849.20
2022-09-03T13:02:27.966Z,98849.20
2022-09-03T13:05:25.488Z,98849.80
2022-09-03T13:08:22.955Z,98844.40
2022-09-03T13:11:20.448Z,98845.00
2022-09-03T13:14:19.125Z,98843.20
2022-09-03T13:17:16.706Z,98840.20
2022-09-03T13:20:14.184Z,98844.40
2022-09-03T13:23:12.094Z,98840.20
2022-09-03T13:26:10.706Z,98833.80
2022-09-03T13:29:08.179Z,98831.00
2022-09-03T13:32:06.328Z,98829.40
2022-09-03T13:35:03.934Z,98821.80
2022-09-03T13:38:02.133Z,98819.40
2022-09-03T13:40:59.826Z,98815.20
2022-09-03T13:43:57.287Z,98819.40
2022-09-03T13:46:54.787Z,98819.80
2022-09-03T13:50:10.176Z,98814.60
2022-09-03T13:53:07.767Z,98812.20
2022-09-03T13:56:06.660Z,98808.40
2022-09-03T13:59:05.238Z,98806.20
2022-09-03T14:02:02.751Z,98806.80
2022-09-03T14:05:00.286Z,98800.00
2022-09-03T14:07:58.086Z,98801.80
2022-09-03T14:10:55.905Z,98796.80
2022-09-03T14:13:54.794Z,98788.80
2022-09-03T14:16:55.375Z,98794.00
2022-09-03T14:19:53.042Z,98792.80
2022-09-03T14:22:50.517Z,98802.40
2022-09-03T14:25:48.112Z,98807.80
2022-09-03T14:28:45.610Z,98810.60
2022-09-03T14:31:43.126Z,98808.00
2022-09-03T14:34:40.646Z,98803.20
2022-09-03T14:37:38.172Z,98799.80
2022-09-03T14:40:35.671Z,98796.60
2022-09-03T14:43:33.143Z,98799.20
2022-09-03T14:46:30.679Z,98799.00
2022-09-03T14:49:28.542Z,98800.40
2022-09-03T14:52:26.001Z,98799.00
2022-09-03T14:55:23.489Z,98796.40
2022-09-03T14:58:21.022Z,98799.40
2022-09-03T15:01:18.532Z,98799.60
2022-09-03T15:04:16.059Z,98797.20
2022-09-03T15:07:13.539Z,98804.60
2022-09-03T15:10:11.036Z,98808.40
2022-09-03T15:13:08.539Z,98808.00
2022-09-03T15:16:06.518Z,98800.20
2022-09-03T15:19:05.053Z,98799.00
2022-09-03T15:22:03.781Z,98794.20
2022-09-03T15:25:01.260Z,98799.00
2022-09-03T15:27:58.751Z,98800.60
2022-09-03T15:30:56.499Z,98796.40
2022-09-03T15:33:54.003Z,98794.20
2022-09-03T15:36:53.878Z,98795.20
2022-09-03T15:39:51.558Z,98792.20
2022-09-03T15:42:49.060Z,98788.60
2022-09-03T15:45:46.628Z,98793.00
2022-09-03T15:48:44.863Z,98793.60
2022-09-03T15:51:43.329Z,98788.00
2022-09-03T15:54:43.660Z,98796.60
2022-09-03T15:57:41.137Z,98793.40
2022-09-03T16:00:40.655Z,98789.00
2022-09-03T16:03:40.174Z,98792.60
2022-09-03T16:06:38.516Z,98795.00
2022-09-03T16:09:35.998Z,98796.40
2022-09-03T16:12:33.479Z,98802.80
2022-09-03T16:15:32.025Z,98807.20
2022-09-03T16:18:30.597Z,98803.40
2022-09-03T16:21:28.099Z,98809.80
2022-09-03T16:24:26.058Z,98814.80
2022-09-03T16:27:23.542Z,98816.80
2022-09-03T16:30:21.042Z,98810.40
2022-09-03T16:33:19.385Z,98808.20
2022-09-03T16:36:16.883Z,98808.20
2022-09-03T16:39:14.466Z,98807.40
2022-09-03T16:42:11.990Z,98808.80
2022-09-03T16:45:12.038Z,98807.60
2022-09-03T16:48:10.109Z,98810.00
2022-09-03T16:51:07.886Z,98809.80
2022-09-03T16:54:05.811Z,98809.20
2022-09-03T16:57:03.360Z,98810.00
2022-09-03T17:00:00.857Z,98813.00
2022-09-03T17:02:58.626Z,98810.80
2022-09-03T17:05:56.105Z,98809.00
2022-09-03T17:08:53.585Z,98814.20
2022-09-03T17:11:51.060Z,98818.00
2022-09-03T17:14:48.589Z,98813.40
2022-09-03T17:17:46.537Z,98820.40
2022-09-03T17:20:49.076Z,98826.00
2022-09-03T17:23:47.053Z,98822.80
2022-09-03T17:26:44.659Z,98826.00
2022-09-03T17:29:43.543Z,98824.40
2022-09-03T17:32:41.032Z,98819.40
2022-09-03T17:35:38.533Z,98817.00
2022-09-03T17:38:36.001Z,98816.80
2022-09-03T17:41:34.344Z,98821.20
2022-09-03T17:44:32.018Z,98818.80
2022-09-03T17:47:29.505Z,98821.40
2022-09-03T17:50:27.605Z,98823.20
2022-09-03T17:53:27.121Z,98826.00
2022-09-03T17:56:24.697Z,98826.40
2022-09-03T17:59:22.160Z,98826.40
2022-09-03T18:02:19.664Z,98826.60
2022-09-03T18:05:20.686Z,98830.40
2022-09-03T18:08:18.161Z,98831.80
2022-09-03T18:11:15.952Z,98837.00
2022-09-03T18:14:13.870Z,98838.80
2022-09-03T18:17:13.502Z,98849.60
2022-09-03T18:20:28.795Z,98851.20
2022-09-03T18:23:44.431Z,98849.20
2022-09-03T18:26:59.463Z,98848.40
2022-09-03T18:30:14.277Z,98849.00
2022-09-03T18:33:29.075Z,98852.80
2022-09-03T18:36:44.282Z,98853.60
2022-09-03T18:39:59.691Z,98856.80
2022-09-03T18:43:15.555Z,98862.00
2022-09-03T18:50:06.371Z,98875.20
2022-09-03T18:53:25.418Z,98874.80
2022-09-03T18:56:43.371Z,98877.20
2022-09-03T18:59:58.881Z,98873.40
2022-09-03T19:03:15.636Z,98867.80
2022-09-03T19:06:34.608Z,98870.00
2022-09-03T19:09:50.413Z,98868.80
2022-09-03T19:13:05.945Z,98864.00
2022-09-03T19:16:22.679Z,98866.40
2022-09-03T19:19:38.570Z,98866.20
2022-09-03T19:22:54.071Z,98867.00
2022-09-03T19:26:09.388Z,98862.60
2022-09-03T19:29:25.003Z,98865.40
2022-09-03T19:32:40.558Z,98870.00
2022-09-03T19:35:56.327Z,98874.00
2022-09-03T19:39:12.016Z,98879.40
2022-09-03T19:42:28.563Z,98880.80
2022-09-03T19:45:43.974Z,98887.80
2022-09-03T19:48:59.539Z,98883.80
2022-09-03T19:52:14.970Z,98886.20
2022-09-03T19:55:31.532Z,98889.00
2022-09-03T19:58:47.462Z,98892.00
2022-09-03T20:02:03.190Z,98898.60
2022-09-03T20:05:19.090Z,98895.60
2022-09-03T20:08:34.668Z,98901.80
2022-09-03T20:11:32.461Z,98901.40
2022-09-03T20:14:30.141Z,98900.60
2022-09-03T20:17:27.709Z,98901.80
2022-09-03T20:20:25.474Z,98904.80
2022-09-03T20:23:23.313Z,98906.40
2022-09-03T20:26:20.827Z,98911.60
2022-09-03T20:29:18.451Z,98916.60
2022-09-03T20:32:15.989Z,98921.80
2022-09-03T20:35:13.523Z,98923.00
2022-09-03T20:38:11.101Z,98928.60
2022-09-03T20:41:08.579Z,98934.80
2022-09-03T20:44:06.063Z,98931.80
2022-09-03T20:47:04.625Z,98932.60
2022-09-03T20:50:04.366Z,98934.40
2022-09-03T20:53:03.153Z,98938.00
2022-09-03T20:56:02.998Z,98935.20
2022-09-03T20:59:01.366Z,98939.80
2022-09-03T21:01:59.017Z,98937.00
2022-09-03T21:04:56.655Z,98934.20
2022-09-03T21:07:54.139Z,98930.60
2022-09-03T21:10:51.635Z,98932.60
2022-09-03T21:13:49.109Z,98930.60
2022-09-03T21:16:46.594Z,98933.00
2022-09-03T21:19:44.099Z,98932.00
2022-09-03T21:22:41.569Z,98932.00
2022-09-03T21:25:39.042Z,98927.60
2022-09-03T21:28:38.695Z,98927.80
2022-09-03T21:31:38.580Z,98932.20
2022-09-03T21:34:36.411Z,98937.80
2022-09-03T21:37:33.902Z,98938.80
2022-09-03T21:40:32.525Z,98940.20
2022-09-03T21:43:30.400Z,98946.40
2022-09-03T21:46:27.906Z,98951.00
2022-09-03T21:49:25.419Z,98956.80
2022-09-03T21:52:22.896Z,98966.40
2022-09-03T21:55:20.725Z,98977.40
2022-09-03T21:58:18.249Z,98983.80
2022-09-03T22:01:15.806Z,98984.00
2022-09-03T22:04:13.303Z,98977.20
2022-09-03T22:07:10.770Z,98984.80
2022-09-03T22:10:08.387Z,98980.60
2022-09-03T22:13:09.362Z,98997.20
2022-09-03T22:16:07.375Z,98999.80
2022-09-03T22:19:09.149Z,99003.80
2022-09-03T22:22:06.640Z,99004.60
2022-09-03T22:25:05.162Z,99000.20
2022-09-03T22:28:03.503Z,99004.40
2022-09-03T22:31:01.011Z,99003.40
2022-09-03T22:33:58.515Z,99001.40
2022-09-03T22:36:55.995Z,99006.20
2022-09-03T22:39:53.533Z,99011.40
2022-09-03T22:42:51.041Z,99013.20
2022-09-03T22:45:48.576Z,99011.00
2022-09-03T22:48:46.073Z,99007.40
2022-09-03T22:51:43.553Z,99007.60
2022-09-03T22:54:41.046Z,99002.60
2022-09-03T22:57:38.528Z,98997.40
2022-09-03T23:00:35.989Z,98998.80
2022-09-03T23:03:37.111Z,99003.60
2022-09-03T23:06:34.686Z,99015.80
2022-09-03T23:09:32.184Z,99022.40
2022-09-03T23:12:29.659Z,99024.00
2022-09-03T23:15:30.687Z,99026.20
2022-09-03T23:18:28.179Z,99032.60
2022-09-03T23:21:25.670Z,99020.40
2022-09-03T23:24:23.139Z,99013.20
2022-09-03T23:27:20.604Z,99013.60
2022-09-03T23:30:18.096Z,99013.80
2022-09-03T23:33:15.587Z,99010.80
2022-09-03T23:36:13.908Z,99015.60
2022-09-03T23:39:11.376Z,99009.60
2022-09-03T23:42:09.122Z,99008.00
2022-09-03T23:45:07.153Z,99006.60
2022-09-03T23:48:07.700Z,99008.00
2022-09-03T23:51:05.206Z,99009.20
2022-09-03T23:54:02.698Z,99009.00
2022-09-03T23:57:00.729Z,99012.60
2022-09-03T23:59:58.217Z,99012.00
